createdAt,value
2022-10-12T00:00:40.891Z,100561.72
2022-10-12T00:01:51.038Z,100560.84
2022-10-12T00:03:02.108Z,100560.94
2022-10-12T00:05:26.678Z,100554.90
2022-10-12T00:06:36.017Z,100560.94
2022-10-12T00:07:45.321Z,100563.63
2022-10-12T00:08:55.525Z,100559.23
2022-10-12T00:11:27.841Z,100560.17
2022-10-12T00:13:54.088Z,100564.02
2022-10-12T00:15:05.634Z,100566.41
2022-10-12T00:17:32.477Z,100560.08
2022-10-12T00:19:57.014Z,100565.28
2022-10-12T00:22:30.106Z,100571.41
2022-10-12T00:23:40.840Z,100569.19
2022-10-12T00:24:50.686Z,100570.53
2022-10-12T00:27:24.258Z,100558.82
2022-10-12T00:28:34.510Z,100570.07
2022-10-12T00:29:44.269Z,100569.13
2022-10-12T00:32:11.012Z,100565.56
2022-10-12T00:33:21.701Z,100566.23
2022-10-12T00:35:45.608Z,100564.58
2022-10-12T00:36:58.186Z,100569.57
2022-10-12T00:39:22.333Z,100561.63
2022-10-12T00:41:47.113Z,100565.94
2022-10-12T00:42:56.309Z,100570.16
2022-10-12T00:45:41.812Z,100575.81
2022-10-12T00:48:09.366Z,100566.31
2022-10-12T00:50:39.079Z,100571.59
2022-10-12T00:53:12.477Z,100566.11
2022-10-12T00:55:52.867Z,100569.78
2022-10-12T00:57:06.429Z,100571.41
2022-10-12T00:59:35.042Z,100566.31
2022-10-12T01:00:44.593Z,100569.67
2022-10-12T01:01:54.161Z,100574.95
2022-10-12T01:03:04.432Z,100575.05
2022-10-12T01:04:15.739Z,100563.34
2022-10-12T01:06:42.165Z,100562.87
2022-10-12T01:09:29.023Z,100568.72
2022-10-12T01:12:12.810Z,100566.98
2022-10-12T01:13:22.694Z,100569.48
2022-10-12T01:15:57.465Z,100569.67
2022-10-12T01:19:15.808Z,100566.88
2022-10-12T01:22:10.572Z,100566.72
2022-10-12T01:24:57.585Z,100567.77
2022-10-12T01:26:38.709Z,100570.27
2022-10-12T01:29:33.672Z,100563.64
2022-10-12T01:32:12.104Z,100577.84
2022-10-12T01:35:05.264Z,100573.34
2022-10-12T01:39:27.745Z,100575.15
2022-10-12T01:42:03.055Z,100578.13
2022-10-12T01:43:13.723Z,100577.94
2022-10-12T01:45:41.067Z,100574.77
2022-10-12T01:46:51.689Z,100577.25
2022-10-12T01:49:22.150Z,100579.19
2022-10-12T01:52:12.490Z,100575.71
2022-10-12T01:53:29.920Z,100583.48
2022-10-12T01:56:08.603Z,100573.32
2022-10-12T01:58:56.840Z,100587.64
2022-10-12T02:00:12.086Z,100588.55
2022-10-12T02:02:57.414Z,100585.31
2022-10-12T02:05:45.288Z,100591.73
2022-10-12T02:08:32.299Z,100589.25
2022-10-12T02:11:14.223Z,100594.62
2022-10-12T02:15:18.280Z,100598.34
2022-10-12T02:16:33.860Z,100602.38
2022-10-12T02:19:06.534Z,100611.59
2022-10-12T02:21:35.193Z,100613.33
2022-10-12T02:24:07.257Z,100608.44
2022-10-12T02:26:39.884Z,100614.06
2022-10-12T02:29:12.358Z,100613.31
2022-10-12T02:30:22.725Z,100624.50
2022-10-12T02:33:07.429Z,100627.59
2022-10-12T02:35:43.078Z,100621.17
2022-10-12T02:38:24.182Z,100621.27
2022-10-12T02:40:58.698Z,100618.94
2022-10-12T02:44:57.993Z,100615.20
2022-10-12T02:46:11.250Z,100627.37
2022-10-12T02:48:41.609Z,100621.53
2022-10-12T02:51:11.332Z,100624.22
2022-10-12T02:53:37.714Z,100627.69
2022-10-12T02:56:09.794Z,100623.45
2022-10-12T02:58:35.071Z,100626.05
2022-10-12T02:59:44.367Z,100630.34
2022-10-12T03:02:10.518Z,100628.83
2022-10-12T03:04:37.272Z,100637.08
2022-10-12T03:07:01.946Z,100639.67
2022-10-12T03:09:27.008Z,100635.24
2022-10-12T03:11:51.843Z,100635.34
2022-10-12T03:14:17.486Z,100643.30
2022-10-12T03:16:44.708Z,100637.27
2022-10-12T03:19:09.981Z,100643.48
2022-10-12T03:21:37.057Z,100638.41
2022-10-12T03:24:02.625Z,100648.07
2022-10-12T03:26:28.899Z,100648.07
2022-10-12T03:28:53.805Z,100654.23
2022-10-12T03:31:20.884Z,100645.38
2022-10-12T03:33:45.634Z,100654.58
2022-10-12T03:34:54.773Z,100661.45
2022-10-12T03:36:05.015Z,100655.90
2022-10-12T03:37:14.744Z,100661.36
2022-10-12T03:38:23.864Z,100660.52
2022-10-12T03:39:33.700Z,100660.41
2022-10-12T03:41:58.062Z,100661.50
2022-10-12T03:44:22.827Z,100654.33
2022-10-12T03:46:46.975Z,100665.16
2022-10-12T03:49:12.558Z,100666.87
2022-10-12T03:51:39.087Z,100657.95
2022-10-12T03:54:03.544Z,100659.70
2022-10-12T03:56:29.229Z,100658.33
2022-10-12T03:57:38.248Z,100664.33
2022-10-12T03:58:47.596Z,100667.11
2022-10-12T04:01:12.375Z,100664.14
2022-10-12T04:02:21.149Z,100661.31
2022-10-12T04:03:30.727Z,100664.09
2022-10-12T04:04:40.367Z,100662.34
2022-10-12T04:05:57.826Z,100666.86
2022-10-12T04:08:28.996Z,100667.20
2022-10-12T04:09:39.178Z,100668.58
2022-10-12T04:10:52.205Z,100676.72
2022-10-12T04:12:01.549Z,100672.14
2022-10-12T04:13:11.168Z,100676.53
2022-10-12T04:14:20.937Z,100673.00
2022-10-12T04:16:45.830Z,100670.64
2022-10-12T04:17:55.861Z,100672.23
2022-10-12T04:20:20.437Z,100670.03
2022-10-12T04:22:47.480Z,100670.92
2022-10-12T04:25:12.506Z,100671.77
2022-10-12T04:27:37.696Z,100672.72
2022-10-12T04:30:05.029Z,100680.77
2022-10-12T04:32:28.637Z,100674.27
2022-10-12T04:34:53.250Z,100684.39
2022-10-12T04:37:18.994Z,100684.00
2022-10-12T04:39:44.317Z,100684.94
2022-10-12T04:40:54.370Z,100690.22
2022-10-12T04:43:21.723Z,100687.02
2022-10-12T04:45:55.675Z,100680.32
2022-10-12T04:48:22.510Z,100689.58
2022-10-12T04:49:32.248Z,100687.99
2022-10-12T04:50:42.006Z,100693.72
2022-10-12T04:51:51.760Z,100686.02
2022-10-12T04:54:16.242Z,100693.89
2022-10-12T04:56:42.124Z,100687.42
2022-10-12T04:59:05.445Z,100696.06
2022-10-12T05:01:32.572Z,100690.06
2022-10-12T05:04:00.081Z,100693.76
2022-10-12T05:06:25.731Z,100690.81
2022-10-12T05:08:49.873Z,100697.52
2022-10-12T05:09:58.653Z,100702.42
2022-10-12T05:11:08.840Z,100702.67
2022-10-12T05:13:33.659Z,100697.31
2022-10-12T05:16:00.111Z,100704.45
2022-10-12T05:18:24.392Z,100701.98
2022-10-12T05:20:48.055Z,100707.53
2022-10-12T05:21:57.781Z,100721.80
2022-10-12T05:23:06.785Z,100710.72
2022-10-12T05:24:16.440Z,100722.98
2022-10-12T05:25:25.298Z,100714.48
2022-10-12T05:26:35.492Z,100720.72
2022-10-12T05:27:44.231Z,100727.47
2022-10-12T05:28:52.852Z,100714.31
2022-10-12T05:31:19.841Z,100719.11
2022-10-12T05:33:43.447Z,100718.63
2022-10-12T05:36:08.386Z,100723.03
2022-10-12T05:38:32.996Z,100725.00
2022-10-12T05:39:42.301Z,100732.20
2022-10-12T05:40:56.397Z,100724.09
2022-10-12T05:43:22.821Z,100729.71
2022-10-12T05:44:31.784Z,100742.66
2022-10-12T05:45:40.503Z,100736.89
2022-10-12T05:46:50.309Z,100743.02
2022-10-12T08:44:34.028Z,100838.00
2022-10-12T08:45:55.273Z,100833.91
2022-10-12T08:47:10.911Z,100835.41
2022-10-12T08:49:49.949Z,100821.23
2022-10-12T08:51:05.550Z,100828.91
2022-10-12T08:54:04.182Z,100826.09
2022-10-12T08:56:41.467Z,100822.30
2022-10-12T08:57:50.332Z,100826.55
2022-10-12T08:59:02.088Z,100832.16
2022-10-12T09:01:40.013Z,100827.13
2022-10-12T09:03:21.790Z,100822.07
2022-10-12T09:04:55.841Z,100821.72
2022-10-12T09:07:33.647Z,100822.44
2022-10-12T09:11:51.907Z,100827.52
2022-10-12T09:14:38.704Z,100826.46
2022-10-12T09:15:52.877Z,100827.89
2022-10-12T09:17:06.303Z,100829.63
2022-10-12T09:21:22.077Z,100823.20
2022-10-12T09:23:49.897Z,100824.17
2022-10-12T09:26:21.197Z,100818.64
2022-10-12T09:28:50.766Z,100824.17
2022-10-12T09:31:54.375Z,100831.61
2022-10-12T09:34:25.786Z,100819.70
2022-10-12T09:36:55.161Z,100822.41
2022-10-12T09:39:28.979Z,100809.63
2022-10-12T09:40:35.584Z,100826.02
2022-10-12T09:41:49.615Z,100825.25
2022-10-12T09:46:01.876Z,100813.47
2022-10-12T09:47:30.871Z,100828.67
2022-10-12T09:50:07.848Z,100815.31
2022-10-12T09:51:18.336Z,100826.70
2022-10-12T09:52:35.381Z,100829.20
2022-10-12T09:55:10.434Z,100822.75
2022-10-12T09:58:00.732Z,100811.92
2022-10-12T09:59:43.646Z,100821.02
2022-10-12T10:02:31.052Z,100812.73
2022-10-12T10:03:40.919Z,100817.88
2022-10-12T10:06:07.214Z,100821.25
2022-10-12T10:07:29.113Z,100829.34
2022-10-12T10:10:12.154Z,100817.33
2022-10-12T10:12:54.886Z,100813.74
2022-10-12T10:15:22.836Z,100812.28
2022-10-12T10:16:32.257Z,100822.43
2022-10-12T10:17:41.811Z,100813.47
2022-10-12T10:20:17.060Z,100810.39
2022-10-12T10:21:36.111Z,100823.88
2022-10-12T10:22:48.425Z,100818.47
2022-10-12T10:24:03.436Z,100822.80
2022-10-12T10:26:52.993Z,100813.10
2022-10-12T10:28:22.451Z,100812.09
2022-10-12T10:29:40.035Z,100815.64
2022-10-12T10:32:26.194Z,100812.73
2022-10-12T10:36:27.582Z,100811.16
2022-10-12T10:37:36.417Z,100819.56
2022-10-12T10:40:29.730Z,100810.11
2022-10-12T10:41:41.473Z,100813.88
2022-10-12T10:42:56.936Z,100814.27
2022-10-12T10:48:19.988Z,100818.63
2022-10-12T10:51:08.436Z,100814.83
2022-10-12T10:52:26.305Z,100814.91
2022-10-12T10:53:48.206Z,100818.19
2022-10-12T10:55:13.783Z,100812.66
2022-10-12T10:56:28.435Z,100820.05
2022-10-12T10:57:40.772Z,100817.45
2022-10-12T10:59:00.287Z,100816.33
2022-10-12T11:01:42.195Z,100811.73
2022-10-12T11:04:22.972Z,100814.67
2022-10-12T11:05:38.924Z,100814.39
2022-10-12T11:08:20.385Z,100816.05
2022-10-12T11:11:01.782Z,100811.09
2022-10-12T11:13:41.445Z,100798.77
2022-10-12T11:16:19.118Z,100811.09
2022-10-12T11:19:00.555Z,100809.27
2022-10-12T11:22:03.099Z,100811.73
2022-10-12T11:26:00.880Z,100817.78
2022-10-12T11:28:41.590Z,100816.29
2022-10-12T11:30:08.426Z,100815.64
2022-10-12T11:33:56.173Z,100816.66
2022-10-12T11:36:26.079Z,100804.73
2022-10-12T11:39:07.059Z,100810.67
2022-10-12T11:42:16.495Z,100808.97
2022-10-12T11:44:42.304Z,100810.45
2022-10-12T11:47:30.185Z,100810.54
2022-10-12T11:50:37.377Z,100809.05
2022-10-12T11:53:08.831Z,100809.48
2022-10-12T11:55:46.376Z,100815.27
2022-10-12T12:01:23.181Z,100820.80
2022-10-12T12:04:36.569Z,100819.70
2022-10-12T12:06:54.023Z,100815.27
2022-10-12T12:08:02.666Z,100826.38
2022-10-12T12:10:43.486Z,100819.30
2022-10-12T12:11:55.846Z,100828.97
2022-10-12T12:13:15.229Z,100828.00
2022-10-12T12:14:30.977Z,100819.27
2022-10-12T12:17:19.482Z,100821.77
2022-10-12T12:19:58.406Z,100816.48
2022-10-12T12:22:34.362Z,100814.38
2022-10-12T12:23:53.307Z,100818.91
2022-10-12T12:26:31.037Z,100815.44
2022-10-12T12:29:11.020Z,100808.69
2022-10-12T12:31:42.685Z,100816.17
2022-10-12T12:34:17.446Z,100814.28
2022-10-12T12:36:52.206Z,100817.45
2022-10-12T12:39:32.169Z,100811.64
2022-10-12T12:42:03.942Z,100816.84
2022-10-12T12:43:23.346Z,100822.43
2022-10-12T12:44:41.182Z,100834.59
2022-10-12T12:46:01.610Z,100821.98
2022-10-12T12:48:44.864Z,100817.38
2022-10-12T12:51:25.367Z,100817.55
2022-10-12T12:52:39.984Z,100816.64
2022-10-12T12:54:02.337Z,100815.44
2022-10-12T12:55:17.640Z,100827.75
2022-10-12T12:58:07.553Z,100813.63
2022-10-12T13:00:40.097Z,100812.90
2022-10-12T13:03:42.809Z,100818.19
2022-10-12T13:06:50.762Z,100812.54
2022-10-12T13:09:34.199Z,100812.09
2022-10-12T13:12:53.802Z,100817.95
2022-10-12T13:16:05.299Z,100812.82
2022-10-12T13:17:33.716Z,100817.22
2022-10-12T13:20:21.187Z,100817.50
2022-10-12T13:22:52.653Z,100814.67
2022-10-12T13:25:42.044Z,100812.58
2022-10-12T13:28:22.586Z,100819.00
2022-10-12T13:29:50.845Z,100819.28
2022-10-12T13:32:42.994Z,100816.41
2022-10-12T13:35:46.020Z,100812.82
2022-10-12T13:38:27.415Z,100817.63
2022-10-12T13:41:07.157Z,100814.16
2022-10-12T13:43:54.250Z,100816.22
2022-10-12T13:45:08.615Z,100822.34
2022-10-12T13:48:05.549Z,100823.59
2022-10-12T13:50:42.695Z,100817.09
2022-10-12T13:51:58.295Z,100824.28
2022-10-12T13:54:33.717Z,100819.16
2022-10-12T13:55:42.937Z,100817.05
2022-10-12T13:58:30.591Z,100809.72
2022-10-12T14:00:55.936Z,100823.12
2022-10-12T14:03:28.179Z,100809.72
2022-10-12T14:05:56.257Z,100814.63
2022-10-12T14:07:08.367Z,100825.28
2022-10-12T14:09:43.383Z,100818.19
2022-10-12T14:12:11.610Z,100809.22
2022-10-12T14:14:47.005Z,100808.46
2022-10-12T14:15:58.008Z,100814.67
2022-10-12T14:18:43.027Z,100815.72
2022-10-12T14:22:47.756Z,100814.95
2022-10-12T14:25:22.020Z,100815.96
2022-10-12T14:26:39.967Z,100823.14
2022-10-12T14:27:58.517Z,100824.23
2022-10-12T14:29:27.518Z,100822.49
2022-10-12T14:32:07.024Z,100818.27
2022-10-12T14:33:20.574Z,100825.44
2022-10-12T14:36:21.805Z,100819.70
2022-10-12T14:37:38.163Z,100826.02
2022-10-12T14:38:49.200Z,100826.02
2022-10-12T14:40:04.225Z,100826.87
2022-10-12T14:41:35.012Z,100826.11
2022-10-12T14:44:20.578Z,100823.94
2022-10-12T14:45:31.574Z,100824.84
2022-10-12T14:48:23.086Z,100825.38
2022-10-12T14:49:42.252Z,100827.05
2022-10-12T14:50:52.591Z,100828.98
2022-10-12T14:52:02.786Z,100836.47
2022-10-12T14:53:15.215Z,100833.11
2022-10-12T14:54:25.035Z,100830.53
2022-10-12T14:55:34.397Z,100835.05
2022-10-12T14:56:43.136Z,100834.20
2022-10-12T14:57:52.007Z,100838.64
2022-10-12T14:59:01.179Z,100836.05
2022-10-12T15:00:23.619Z,100832.58
2022-10-12T15:02:49.118Z,100833.65
2022-10-12T15:05:17.713Z,100830.30
2022-10-12T15:06:26.460Z,100837.36
2022-10-12T15:08:51.997Z,100839.25
2022-10-12T15:10:02.160Z,100837.55
2022-10-12T15:11:14.971Z,100850.10
2022-10-12T15:13:40.617Z,100846.97
2022-10-12T15:14:51.369Z,100841.45
2022-10-12T15:16:01.130Z,100843.30
2022-10-12T15:17:15.107Z,100847.83
2022-10-12T15:18:24.087Z,100848.02
2022-10-12T15:20:49.631Z,100851.41
2022-10-12T15:21:59.658Z,100848.81
2022-10-12T15:23:10.610Z,100845.23
2022-10-12T15:24:19.761Z,100848.93
2022-10-12T15:27:01.959Z,100853.77
2022-10-12T15:28:11.934Z,100857.23
2022-10-12T15:29:20.867Z,100850.13
2022-10-12T15:30:30.333Z,100848.50
2022-10-12T15:31:38.936Z,100850.31
2022-10-12T15:32:49.325Z,100853.13
2022-10-12T15:35:22.372Z,100853.34
2022-10-12T15:37:50.098Z,100849.34
2022-10-12T15:38:58.773Z,100857.24
2022-10-12T15:41:27.271Z,100850.97
2022-10-12T15:42:37.900Z,100860.72
2022-10-12T15:45:01.605Z,100853.78
2022-10-12T15:47:28.213Z,100861.89
2022-10-12T15:49:54.519Z,100853.78
2022-10-12T15:51:08.436Z,100859.20
2022-10-12T15:52:17.470Z,100861.98
2022-10-12T15:53:27.632Z,100863.83
2022-10-12T15:54:36.749Z,100871.27
2022-10-12T15:57:00.944Z,100858.31
2022-10-12T15:58:11.292Z,100860.91
2022-10-12T16:00:34.822Z,100870.42
2022-10-12T16:01:44.505Z,100863.17
2022-10-12T16:04:15.099Z,100867.17
2022-10-12T16:06:43.336Z,100861.02
2022-10-12T16:07:53.544Z,100879.03
2022-10-12T16:09:02.514Z,100868.34
2022-10-12T16:10:15.086Z,100878.41
2022-10-12T16:12:39.792Z,100871.82
2022-10-12T16:13:55.484Z,100881.61
2022-10-12T16:15:01.862Z,100880.77
2022-10-12T16:16:11.588Z,100885.27
2022-10-12T16:17:20.200Z,100875.47
2022-10-12T16:19:45.909Z,100880.03
2022-10-12T16:20:54.453Z,100879.02
2022-10-12T16:22:05.772Z,100874.91
2022-10-12T16:24:33.498Z,100878.80
2022-10-12T16:25:43.565Z,100879.64
2022-10-12T16:28:10.170Z,100872.77
2022-10-12T16:30:34.491Z,100872.33
2022-10-12T16:31:44.183Z,100882.31
2022-10-12T16:32:53.508Z,100889.56
2022-10-12T16:34:02.806Z,100885.23
2022-10-12T16:35:13.820Z,100888.99
2022-10-12T16:36:23.712Z,100880.80
2022-10-12T16:38:49.258Z,100872.83
2022-10-12T16:41:19.130Z,100878.89
2022-10-12T16:42:29.021Z,100891.27
2022-10-12T16:44:53.932Z,100888.06
2022-10-12T16:46:03.924Z,100889.66
2022-10-12T16:47:19.072Z,100887.71
2022-10-12T16:49:43.202Z,100888.73
2022-10-12T16:52:07.254Z,100889.69
2022-10-12T16:54:31.285Z,100883.41
2022-10-12T16:56:55.906Z,100882.45
2022-10-12T16:59:19.544Z,100887.09
2022-10-12T17:01:44.260Z,100889.91
2022-10-12T17:02:57.286Z,100903.16
2022-10-12T17:05:21.295Z,100894.42
2022-10-12T17:06:31.664Z,100896.12
2022-10-12T17:07:40.275Z,100891.69
2022-10-12T17:08:49.041Z,100888.99
2022-10-12T17:11:16.616Z,100878.55
2022-10-12T17:12:26.152Z,100888.42
2022-10-12T17:13:38.299Z,100888.42
2022-10-12T17:16:24.617Z,100889.20
2022-10-12T17:17:33.208Z,100899.85
2022-10-12T17:19:57.599Z,100901.27
2022-10-12T17:22:23.062Z,100897.33
2022-10-12T17:24:48.981Z,100892.83
2022-10-12T17:27:17.533Z,100892.36
2022-10-12T17:28:27.717Z,100896.78
2022-10-12T17:29:40.013Z,100903.34
2022-10-12T17:30:50.217Z,100891.81
2022-10-12T17:32:00.860Z,100897.30
2022-10-12T17:34:38.942Z,100888.42
2022-10-12T17:37:13.036Z,100885.80
2022-10-12T17:38:22.630Z,100898.27
2022-10-12T17:40:51.367Z,100889.97
2022-10-12T17:42:01.203Z,100895.09
2022-10-12T17:43:11.004Z,100893.25
2022-10-12T17:44:20.570Z,100901.34
2022-10-12T17:45:29.156Z,100895.95
2022-10-12T17:47:57.846Z,100896.31
2022-10-12T17:49:09.497Z,100902.70
2022-10-12T17:50:18.195Z,100897.63
2022-10-12T17:51:27.338Z,100902.23
2022-10-12T17:53:55.823Z,100895.50
2022-10-12T17:55:09.434Z,100898.98
2022-10-12T17:57:33.778Z,100896.77
2022-10-12T17:58:43.402Z,100902.05
2022-10-12T17:59:55.390Z,100897.07
2022-10-12T18:01:16.605Z,100906.89
2022-10-12T18:03:44.205Z,100900.05
2022-10-12T18:04:52.917Z,100912.34
2022-10-12T18:07:22.473Z,100908.43
2022-10-12T18:08:31.160Z,100909.86
2022-10-12T18:11:01.830Z,100912.83
2022-10-12T18:12:12.318Z,100911.70
2022-10-12T18:13:22.044Z,100906.52
2022-10-12T18:14:31.236Z,100915.45
2022-10-12T18:15:43.858Z,100913.80
2022-10-12T18:18:14.274Z,100917.19
2022-10-12T18:19:20.963Z,100923.34
2022-10-12T18:21:44.901Z,100911.90
2022-10-12T18:22:53.622Z,100921.50
2022-10-12T18:24:06.940Z,100922.38
2022-10-12T18:25:17.292Z,100926.88
2022-10-12T18:27:43.076Z,100927.38
2022-10-12T18:28:55.771Z,100930.73
2022-10-12T18:30:06.085Z,100934.38
2022-10-12T18:31:22.834Z,100928.33
2022-10-12T18:33:47.562Z,100922.28
2022-10-12T18:36:12.121Z,100922.38
2022-10-12T18:37:20.757Z,100922.26
2022-10-12T18:38:29.579Z,100922.36
2022-10-12T18:39:40.737Z,100933.13
2022-10-12T18:40:49.449Z,100935.92
2022-10-12T18:41:58.538Z,100929.67
2022-10-12T18:45:50.474Z,100933.81
2022-10-12T18:48:16.332Z,100936.41
2022-10-12T18:50:40.222Z,100931.22
2022-10-12T18:51:50.725Z,100937.26
2022-10-12T18:52:59.305Z,100939.95
2022-10-12T18:54:08.402Z,100936.31
2022-10-12T18:56:35.775Z,100927.94
2022-10-12T18:59:01.754Z,100931.39
2022-10-12T19:01:27.920Z,100937.56
2022-10-12T19:02:37.712Z,100939.86
2022-10-12T19:03:48.307Z,100946.29
2022-10-12T19:04:57.134Z,100944.39
2022-10-12T19:07:25.867Z,100940.25
2022-10-12T19:08:36.065Z,100945.44
2022-10-12T19:09:44.650Z,100943.70
2022-10-12T19:10:53.335Z,100942.74
2022-10-12T19:12:18.264Z,100948.13
2022-10-12T19:14:43.077Z,100946.69
2022-10-12T19:17:07.304Z,100943.89
2022-10-12T19:18:18.222Z,100951.67
2022-10-12T19:20:42.577Z,100947.18
2022-10-12T19:21:54.109Z,100945.14
2022-10-12T19:23:03.348Z,100951.48
2022-10-12T19:24:14.442Z,100953.31
2022-10-12T19:26:40.217Z,100950.23
2022-10-12T19:27:49.135Z,100950.03
2022-10-12T19:30:13.793Z,100944.19
2022-10-12T19:32:41.171Z,100945.05
2022-10-12T19:35:07.425Z,100954.17
2022-10-12T19:36:22.877Z,100955.80
2022-10-12T19:37:32.406Z,100957.70
2022-10-12T19:39:58.898Z,100957.84
2022-10-12T19:41:09.881Z,100956.05
2022-10-12T19:43:35.476Z,100958.99
2022-10-12T19:46:08.153Z,100954.84
2022-10-12T19:47:16.897Z,100962.87
2022-10-12T19:48:27.975Z,100960.46
2022-10-12T19:51:02.792Z,100957.48
2022-10-12T19:53:26.871Z,100956.73
2022-10-12T19:55:50.534Z,100955.94
2022-10-12T19:56:59.946Z,100962.04
2022-10-12T19:58:10.274Z,100959.60
2022-10-12T19:59:18.958Z,100958.81
2022-10-12T20:01:45.116Z,100958.31
2022-10-12T20:04:12.399Z,100962.55
2022-10-12T20:05:21.262Z,100962.29
2022-10-12T20:06:31.541Z,100966.02
2022-10-12T20:08:57.589Z,100962.84
2022-10-12T20:10:08.834Z,100963.34
2022-10-12T20:11:24.531Z,100966.88
2022-10-12T20:12:33.461Z,100953.52
2022-10-12T20:14:58.521Z,100957.17
2022-10-12T20:16:09.350Z,100956.84
2022-10-12T20:17:17.743Z,100957.64
2022-10-12T20:19:43.315Z,100958.72
2022-10-12T20:22:09.504Z,100956.98
2022-10-12T20:23:19.275Z,100962.93
2022-10-12T20:24:28.461Z,100964.98
2022-10-12T20:25:44.785Z,100969.51
2022-10-12T20:26:54.344Z,100962.29
2022-10-12T20:28:04.048Z,100964.06
2022-10-12T20:30:29.517Z,100960.72
2022-10-12T20:31:38.887Z,100967.86
2022-10-12T20:32:53.154Z,100968.81
2022-10-12T20:33:59.683Z,100971.41
2022-10-12T20:35:08.676Z,100960.64
2022-10-12T20:37:39.432Z,100969.51
2022-10-12T20:38:48.721Z,100969.24
2022-10-12T20:39:58.182Z,100969.34
2022-10-12T20:41:12.891Z,100969.43
2022-10-12T20:43:40.132Z,100964.47
2022-10-12T20:44:50.597Z,100966.92
2022-10-12T20:46:04.691Z,100976.03
2022-10-12T20:47:13.791Z,100969.98
2022-10-12T20:48:22.815Z,100974.56
2022-10-12T20:49:31.693Z,100975.42
2022-10-12T20:50:41.321Z,100977.34
2022-10-12T20:53:16.598Z,100974.66
2022-10-12T20:54:26.079Z,100972.83
2022-10-12T20:55:35.152Z,100979.19
2022-10-12T20:58:03.486Z,100973.16
2022-10-12T21:00:26.988Z,100970.56
2022-10-12T21:01:37.949Z,100975.61
2022-10-12T21:04:02.603Z,100972.49
2022-10-12T21:06:27.917Z,100968.42
2022-10-12T21:08:55.671Z,100974.75
2022-10-12T21:10:07.113Z,100978.05
2022-10-12T21:12:38.179Z,100977.53
2022-10-12T21:15:04.935Z,100966.92
2022-10-12T21:17:33.839Z,100974.32
2022-10-12T21:19:59.052Z,100968.95
2022-10-12T21:21:18.373Z,100974.92
2022-10-12T21:22:27.806Z,100979.36
2022-10-12T21:24:53.726Z,100973.44
2022-10-12T21:27:28.033Z,100979.80
2022-10-12T21:29:53.040Z,100975.36
2022-10-12T21:32:19.150Z,100978.99
2022-10-12T21:33:28.608Z,100990.35
2022-10-12T21:35:53.277Z,100976.22
2022-10-12T21:38:18.722Z,100970.41
2022-10-12T21:40:42.516Z,100990.44
2022-10-12T21:41:52.064Z,100983.86
2022-10-12T21:43:01.442Z,100984.80
2022-10-12T21:44:13.201Z,100984.03
2022-10-12T21:45:22.343Z,100985.92
2022-10-12T21:46:34.410Z,100986.96
2022-10-12T21:47:44.176Z,100979.70
2022-10-12T21:50:11.017Z,100981.79
2022-10-12T21:52:36.618Z,100978.22
2022-10-12T21:55:01.639Z,100980.91
2022-10-12T21:57:31.956Z,100984.03
2022-10-12T21:58:41.337Z,100982.97
2022-10-12T21:59:50.298Z,100986.45
2022-10-12T22:02:22.862Z,100983.06
2022-10-12T22:03:32.384Z,100992.60
2022-10-12T22:04:43.361Z,100983.69
2022-10-12T22:07:08.022Z,100986.45
2022-10-12T22:09:31.976Z,100991.12
2022-10-12T22:10:41.248Z,100986.37
2022-10-12T22:11:51.695Z,100990.71
2022-10-12T22:13:00.810Z,100988.70
2022-10-12T22:14:18.117Z,100985.07
2022-10-12T22:16:43.709Z,100984.56
2022-10-12T22:17:52.296Z,100999.54
2022-10-12T22:20:20.508Z,100993.98
2022-10-12T22:21:37.517Z,100986.52
2022-10-12T22:22:46.089Z,100990.09
2022-10-12T22:25:10.402Z,100987.76
2022-10-12T22:26:22.944Z,100997.27
2022-10-12T22:27:39.709Z,100993.63
2022-10-12T22:30:06.255Z,100988.79
2022-10-12T22:31:21.239Z,100995.64
2022-10-12T22:32:37.750Z,100991.12
2022-10-12T22:33:47.625Z,100993.72
2022-10-12T22:34:57.435Z,100999.95
2022-10-12T22:37:23.677Z,101003.17
2022-10-12T22:38:38.745Z,100999.45
2022-10-12T22:41:14.308Z,100987.48
2022-10-12T22:42:31.932Z,100999.77
2022-10-12T22:43:41.242Z,100996.22
2022-10-12T22:44:50.320Z,101001.42
2022-10-12T22:47:14.878Z,100992.78
2022-10-12T22:48:25.199Z,101000.47
2022-10-12T22:49:34.177Z,100997.70
2022-10-12T22:52:00.553Z,100989.14
2022-10-12T22:54:25.486Z,100993.31
2022-10-12T22:55:34.419Z,100995.55
2022-10-12T22:56:44.400Z,100999.09
2022-10-12T22:59:13.115Z,100992.25
2022-10-12T23:00:22.052Z,100997.34
2022-10-12T23:01:33.067Z,100995.64
2022-10-12T23:02:42.998Z,100992.86
2022-10-12T23:04:00.911Z,100996.31
2022-10-12T23:05:10.646Z,100998.92
2022-10-12T23:07:35.969Z,100987.76
2022-10-12T23:08:45.545Z,100999.01
2022-10-12T23:09:54.576Z,100995.46
2022-10-12T23:11:13.778Z,101000.66
2022-10-12T23:12:24.904Z,100992.60
2022-10-12T23:14:51.208Z,100999.27
2022-10-12T23:16:06.301Z,100999.80
2022-10-12T23:17:16.081Z,101003.44
2022-10-12T23:18:25.135Z,100994.58
2022-10-12T23:20:58.581Z,101003.88
2022-10-12T23:22:07.646Z,100999.95
2022-10-12T23:23:16.248Z,100998.06
2022-10-12T23:25:45.217Z,101000.25
2022-10-12T23:28:08.897Z,100999.27
2022-10-12T23:30:34.545Z,101006.39
2022-10-12T23:31:43.750Z,101007.87
2022-10-12T23:32:55.359Z,101001.60
2022-10-12T23:34:06.354Z,101006.98
2022-10-12T23:35:21.416Z,101003.44
2022-10-12T23:36:31.179Z,101010.64
2022-10-12T23:38:59.001Z,101000.93
2022-10-12T23:41:24.459Z,100999.98
2022-10-12T23:43:49.365Z,101006.30
2022-10-12T23:44:59.653Z,101013.06
2022-10-12T23:47:27.104Z,100998.86
2022-10-12T23:48:36.801Z,100998.51
2022-10-12T23:49:51.508Z,100995.91
2022-10-12T23:51:02.024Z,101000.31
2022-10-12T23:52:11.663Z,100996.77
2022-10-12T23:54:38.026Z,100999.72
2022-10-12T23:55:47.047Z,101002.05
2022-10-12T23:56:58.699Z,100997.70
2022-10-12T23:58:07.932Z,101007.60
